Time;durP1;ratioP1;P1;durP2;ratioP2;P2;SDS_P1;SDS_P2;PMS_P1;PMS_P2;Temp;Humidity;BMP_temperature;BMP_pressure;BME280_temperature;BME280_humidity;BME280_pressure;Samples;Min_cycle;Max_cycle;Signal;HPM_P1;HPM_P2
2021/12/24 00:01:29;;;;;;;19.92;12.82;;;;;;;6.11;100.00;98873.50;4958698;28;20069;-87
2021/12/24 00:03:54;;;;;;;18.75;11.82;;;;;;;6.06;100.00;98867.78;4967884;28;20026;-86
2021/12/24 00:06:20;;;;;;;19.75;11.95;;;;;;;6.04;100.00;98867.91;4984026;28;20038;-88
2021/12/24 00:08:46;;;;;;;18.55;11.32;;;;;;;6.02;100.00;98859.25;4967666;28;20035;-87
2021/12/24 00:11:13;;;;;;;17.13;11.32;;;;;;;6.05;100.00;98861.63;4967217;28;20027;-88
2021/12/24 00:13:42;;;;;;;18.77;11.68;;;;;;;6.10;100.00;98861.22;4967521;28;20038;-88
2021/12/24 00:18:46;;;;;;;19.10;11.90;;;;;;;6.11;100.00;98855.78;4983855;28;20432;-87
2021/12/24 00:35:10;;;;;;;16.23;11.13;;;;;;;6.22;100.00;98842.41;4984043;28;20053;-87
2021/12/24 00:37:37;;;;;;;17.35;11.05;;;;;;;6.26;100.00;98842.97;4969360;28;20508;-89
2021/12/24 00:40:17;;;;;;;18.02;11.35;;;;;;;6.30;100.00;98845.19;4983119;28;20034;-88
2021/12/24 00:42:45;;;;;;;16.70;11.13;;;;;;;6.31;100.00;98833.59;4982357;28;20030;-87
2021/12/24 00:45:12;;;;;;;16.05;10.75;;;;;;;6.32;100.00;98829.13;4967563;28;20026;-89
2021/12/24 00:47:38;;;;;;;16.52;10.27;;;;;;;6.32;100.00;98823.81;4982804;28;20035;-87
2021/12/24 00:50:08;;;;;;;17.80;11.50;;;;;;;6.36;100.00;98822.56;4983237;28;20035;-87
2021/12/24 00:52:49;;;;;;;16.17;10.63;;;;;;;6.33;100.00;98828.16;4967881;28;20046;-87
2021/12/24 00:55:19;;;;;;;15.10;10.15;;;;;;;6.40;100.00;98821.31;4983463;28;20026;-88
2021/12/24 00:57:47;;;;;;;12.68;10.30;;;;;;;6.44;100.00;98819.22;4999122;28;20149;-88
2021/12/24 01:00:19;;;;;;;14.68;10.38;;;;;;;6.40;100.00;98807.19;4982896;28;20031;-88
2021/12/24 01:02:45;;;;;;;15.63;9.93;;;;;;;6.37;100.00;98808.31;4959887;28;20022;-87
2021/12/24 01:05:11;;;;;;;13.57;10.10;;;;;;;6.32;100.00;98813.22;4966663;28;20053;-86
2021/12/24 01:07:37;;;;;;;14.35;9.98;;;;;;;6.32;100.00;98818.50;4975228;28;20034;-88
2021/12/24 01:10:05;;;;;;;13.77;10.15;;;;;;;6.27;100.00;98810.13;4966788;28;20026;-86
2021/12/24 01:12:31;;;;;;;16.45;10.57;;;;;;;6.35;100.00;98807.63;4965821;28;20023;-87
2021/12/24 01:14:57;;;;;;;15.07;9.90;;;;;;;6.36;100.00;98801.31;4982773;28;20035;-88
2021/12/24 01:20:28;;;;;;;13.98;9.57;;;;;;;6.31;100.00;98799.09;4953193;28;20043;-87
2021/12/24 01:25:51;;;;;;;15.43;10.07;;;;;;;6.37;100.00;98804.81;4996858;28;20031;-87
2021/12/24 01:39:20;;;;;;;18.35;10.73;;;;;;;6.44;100.00;98809.44;4982944;28;20136;-87
2021/12/24 01:44:30;;;;;;;17.25;11.15;;;;;;;6.52;100.00;98816.69;4982294;28;20090;-88
2021/12/24 01:47:00;;;;;;;14.10;10.25;;;;;;;6.42;100.00;98819.34;4966481;28;20059;-87
2021/12/24 01:49:26;;;;;;;19.42;10.68;;;;;;;6.38;100.00;98804.69;4965771;28;20060;-87
2021/12/24 01:51:53;;;;;;;16.50;10.68;;;;;;;6.45;100.00;98812.91;4965818;28;20026;-87
2021/12/24 01:54:18;;;;;;;15.77;10.43;;;;;;;6.39;100.00;98818.78;4966027;28;20094;-89
2021/12/24 01:56:44;;;;;;;15.90;10.23;;;;;;;6.46;100.00;98810.13;4965914;28;20062;-88
2021/12/24 01:59:09;;;;;;;14.63;9.95;;;;;;;6.44;100.00;98793.50;4966013;28;20022;-87
2021/12/24 02:01:40;;;;;;;16.67;10.27;;;;;;;6.51;100.00;98804.38;4980781;28;20033;-87
2021/12/24 02:04:06;;;;;;;18.50;9.82;;;;;;;6.58;100.00;98801.03;4965830;28;20023;-86
2021/12/24 02:06:32;;;;;;;16.15;10.35;;;;;;;6.52;100.00;98790.97;4965499;28;20038;-87
2021/12/24 02:08:57;;;;;;;13.63;9.40;;;;;;;6.46;100.00;98796.84;4965823;28;20034;-88
2021/12/24 02:11:23;;;;;;;16.75;10.07;;;;;;;6.47;100.00;98792.38;4965504;28;20091;-88
2021/12/24 02:13:49;;;;;;;16.02;10.07;;;;;;;6.44;100.00;98812.09;4982026;28;20117;-88
2021/12/24 02:29:56;;;;;;;17.33;9.85;;;;;;;6.58;100.00;98794.88;4982023;28;20033;-88
2021/12/24 02:32:22;;;;;;;17.77;9.95;;;;;;;6.59;100.00;98781.44;4965469;28;20055;-87
2021/12/24 02:34:47;;;;;;;15.90;9.57;;;;;;;6.57;100.00;98785.22;4981718;28;20030;-87
2021/12/24 02:37:13;;;;;;;17.00;9.55;;;;;;;6.56;100.00;98779.09;4973353;28;20073;-87
2021/12/24 02:39:39;;;;;;;15.10;8.98;;;;;;;6.51;100.00;98781.31;4958447;28;20042;-88
2021/12/24 02:42:17;;;;;;;13.80;8.93;;;;;;;6.48;100.00;98780.78;4964716;28;20046;-87
2021/12/24 02:44:45;;;;;;;14.37;9.37;;;;;;;6.51;100.00;98783.97;4957231;28;20030;-87
2021/12/24 02:48:08;;;;;;;18.98;9.30;;;;;;;6.59;100.00;98780.63;4957925;28;20759;-88
2021/12/24 02:55:14;;;;;;;13.50;9.38;;;;;;;6.54;100.00;98773.06;4981753;28;20037;-88
2021/12/24 02:57:41;;;;;;;14.45;8.88;;;;;;;6.49;100.00;98772.66;4965215;28;20057;-88
2021/12/24 03:00:14;;;;;;;17.25;10.02;;;;;;;6.54;100.00;98777.56;4964972;28;20030;-87
2021/12/24 03:02:43;;;;;;;15.25;9.45;;;;;;;6.58;100.00;98779.78;4965616;28;20022;-87
2021/12/24 03:05:09;;;;;;;;;;;;;;;6.59;100.00;98773.47;4965892;28;20023;-89
2021/12/24 03:07:34;;;;;;;14.98;9.45;;;;;;;6.61;100.00;98773.34;4964937;28;19916;-88
2021/12/24 03:10:00;;;;;;;13.55;9.68;;;;;;;6.55;100.00;98766.78;4964899;28;20035;-87
2021/12/24 03:12:27;;;;;;;16.10;9.52;;;;;;;6.59;100.00;98768.16;4965432;28;20023;-88
2021/12/24 03:14:56;;;;;;;19.50;10.48;;;;;;;6.58;100.00;98776.28;4972278;28;20031;-86
2021/12/24 03:17:24;;;;;;;16.33;10.95;;;;;;;6.67;100.00;98793.22;4965548;28;20101;-88
2021/12/24 03:19:52;;;;;;;18.35;9.52;;;;;;;6.59;100.00;98773.47;4965137;28;20043;-89
2021/12/24 03:24:48;;;;;;;20.02;10.32;;;;;;;6.57;100.00;98764.81;4981499;28;20026;-88
2021/12/24 03:27:15;;;;;;;18.00;10.32;;;;;;;6.59;100.00;98776.16;4965398;28;20077;-88
2021/12/24 03:29:40;;;;;;;17.98;9.93;;;;;;;6.60;100.00;98772.50;4984518;28;20095;-88
2021/12/24 03:32:06;;;;;;;15.90;10.02;;;;;;;6.60;100.00;98772.50;4968465;28;20053;-87
2021/12/24 03:34:32;;;;;;;12.68;9.27;;;;;;;6.59;100.00;98765.53;4968087;28;20027;-88
2021/12/24 03:36:57;;;;;;;18.33;9.88;;;;;;;6.64;100.00;98767.78;4984109;28;20055;-88
2021/12/24 03:39:23;;;;;;;20.77;10.70;;;;;;;6.70;100.00;98755.75;4968035;28;21010;-90
2021/12/24 03:41:48;;;;;;;17.02;10.30;;;;;;;6.67;100.00;98766.66;4968071;28;20050;-87
2021/12/24 03:44:15;;;;;;;16.88;9.57;;;;;;;6.65;100.00;98753.50;4959291;28;20027;-88
2021/12/24 03:46:54;;;;;;;16.73;9.77;;;;;;;6.59;100.00;98744.28;4967860;28;20074;-89
2021/12/24 03:54:56;;;;;;;14.25;9.38;;;;;;;6.70;100.00;98745.94;4984711;28;20031;-88
2021/12/24 03:57:25;;;;;;;16.77;9.20;;;;;;;6.68;100.00;98747.06;4968361;28;20038;-87
2021/12/24 03:59:50;;;;;;;14.85;10.20;;;;;;;6.65;100.00;98732.25;4983594;28;20031;-88
2021/12/24 04:02:17;;;;;;;16.25;9.38;;;;;;;6.64;100.00;98743.88;4967638;28;20034;-88
2021/12/24 04:04:42;;;;;;;13.60;8.77;;;;;;;6.60;100.00;98747.75;4967983;28;20027;-88
2021/12/24 04:07:08;;;;;;;15.98;9.05;;;;;;;6.62;100.00;98759.94;4967906;28;20026;-89
2021/12/24 04:09:35;;;;;;;15.73;9.52;;;;;;;6.62;100.00;98745.81;4967735;28;20035;-88
2021/12/24 04:12:01;;;;;;;17.70;9.82;;;;;;;6.63;100.00;98755.47;4967820;28;20030;-88
2021/12/24 04:14:26;;;;;;;18.48;9.15;;;;;;;6.69;100.00;98751.41;4967819;28;20058;-88
2021/12/24 04:16:52;;;;;;;20.90;10.10;;;;;;;6.74;100.00;98747.34;4967608;28;20105;-88
2021/12/24 04:27:13;;;;;;;15.45;9.38;;;;;;;6.75;100.00;98750.84;4983377;28;20038;-88
2021/12/24 04:29:39;;;;;;;17.10;9.30;;;;;;;6.71;100.00;98762.72;4967600;28;20031;-87
2021/12/24 04:32:15;;;;;;;15.40;9.20;;;;;;;6.78;100.00;98754.03;4967003;28;20022;-88
2021/12/24 04:34:45;;;;;;;15.05;9.32;;;;;;;6.82;100.00;98749.28;4968939;28;20666;-87
2021/12/24 04:50:59;;;;;;;17.35;10.13;;;;;;;6.84;100.00;98736.69;4983208;28;20033;-88
2021/12/24 04:51:14;;;;;;;19.60;10.50;;;;;;;6.81;100.00;98744.94;4996874;28;20158;-88
2021/12/24 05:02:46;;;;;;;14.10;9.32;;;;;;;6.82;100.00;98746.63;4983046;28;20666;-87
2021/12/24 05:04:47;;;;;;;18.27;9.90;;;;;;;6.86;100.00;98745.34;4975882;28;20071;-88
2021/12/24 05:07:41;;;;;;;17.05;10.40;;;;;;;6.85;100.00;98759.63;4967970;28;20038;-88
2021/12/24 05:10:00;;;;;;;15.88;10.05;;;;;;;6.81;100.00;98763.53;4982476;28;20033;-88
2021/12/24 05:12:26;;;;;;;15.38;9.50;;;;;;;6.83;100.00;98767.72;4966784;28;20031;-88
2021/12/24 05:14:51;;;;;;;15.07;9.45;;;;;;;6.82;100.00;98771.38;4982897;28;20023;-88
2021/12/24 05:22:30;;;;;;;15.02;9.30;;;;;;;6.72;100.00;98770.56;4982721;28;20054;-88
2021/12/24 05:24:56;;;;;;;16.55;9.95;;;;;;;6.74;100.00;98765.09;4983176;28;20090;-87
2021/12/24 05:27:22;;;;;;;17.95;9.52;;;;;;;6.75;100.00;98764.97;4966438;28;20039;-89
2021/12/24 05:29:47;;;;;;;18.40;10.20;;;;;;;6.73;100.00;98763.41;4982618;28;20030;-87
2021/12/24 05:32:13;;;;;;;17.63;9.75;;;;;;;6.77;100.00;98768.31;4966319;28;20885;-87
2021/12/24 05:34:38;;;;;;;18.30;9.50;;;;;;;6.75;100.00;98767.63;4966433;28;20027;-88
2021/12/24 05:37:04;;;;;;;16.50;9.40;;;;;;;6.78;100.00;98771.78;4972817;28;20050;-87
2021/12/24 05:39:29;;;;;;;15.43;8.30;;;;;;;6.74;100.00;98775.72;4966471;28;20026;-88
2021/12/24 05:41:55;;;;;;;14.00;8.38;;;;;;;6.78;100.00;98774.44;4965943;28;20042;-87
2021/12/24 05:44:20;;;;;;;18.25;9.63;;;;;;;6.79;100.00;98778.78;4966314;28;20046;-87
2021/12/24 05:46:46;;;;;;;14.45;9.27;;;;;;;6.78;100.00;98787.75;4966084;28;20354;-88
2021/12/24 05:49:13;;;;;;;18.70;10.32;;;;;;;6.86;100.00;98787.84;4966273;28;20031;-88
2021/12/24 05:51:38;;;;;;;14.23;9.05;;;;;;;6.80;100.00;98788.44;4964960;28;20027;-87
2021/12/24 05:54:04;;;;;;;14.98;8.68;;;;;;;6.84;100.00;98790.66;4965680;28;20065;-87
2021/12/24 05:56:30;;;;;;;15.35;8.57;;;;;;;6.85;100.00;98784.38;4965784;28;20116;-88
2021/12/24 05:58:55;;;;;;;16.60;8.95;;;;;;;6.81;100.00;98788.28;4965790;28;20531;-87
2021/12/24 06:01:21;;;;;;;17.77;9.55;;;;;;;6.83;100.00;98790.81;4981729;28;20027;-86
2021/12/24 06:03:47;;;;;;;19.52;9.35;;;;;;;6.80;100.00;98783.97;4982251;28;20037;-89
2021/12/24 06:06:13;;;;;;;16.73;9.50;;;;;;;6.93;100.00;98787.13;4966104;28;20022;-88
2021/12/24 06:08:38;;;;;;;16.30;9.15;;;;;;;6.89;100.00;98793.72;4965818;28;20051;-88
2021/12/24 06:11:04;;;;;;;19.80;9.13;;;;;;;6.90;100.00;98795.41;4965650;28;20027;-87
2021/12/24 06:13:30;;;;;;;15.10;8.60;;;;;;;6.89;100.00;98791.06;4965785;28;20034;-89
2021/12/24 06:15:55;;;;;;;15.20;8.77;;;;;;;6.87;100.00;98787.72;4965544;28;20030;-88
2021/12/24 06:18:26;;;;;;;17.08;8.75;;;;;;;6.86;100.00;98787.84;4965570;28;20057;-87
2021/12/24 06:20:54;;;;;;;15.32;8.98;;;;;;;6.88;100.00;98788.56;4974394;28;20031;-88
2021/12/24 06:23:21;;;;;;;16.73;8.98;;;;;;;6.84;100.00;98785.34;4965702;28;20038;-87
2021/12/24 06:25:50;;;;;;;16.77;8.38;;;;;;;6.86;100.00;98786.03;4965306;28;20637;-89
2021/12/24 06:28:15;;;;;;;13.23;8.35;;;;;;;6.87;100.00;98777.09;4981587;28;20031;-88
2021/12/24 06:30:41;;;;;;;15.55;8.18;;;;;;;6.88;100.00;98773.44;4965287;28;20039;-87
2021/12/24 06:33:07;;;;;;;16.05;8.30;;;;;;;6.88;100.00;98764.63;4964892;28;20086;-87
2021/12/24 06:35:33;;;;;;;16.83;8.75;;;;;;;6.88;100.00;98768.13;4965515;28;20057;-87
2021/12/24 06:38:01;;;;;;;16.55;8.75;;;;;;;6.91;100.00;98772.31;4965219;28;20138;-88
2021/12/24 06:40:26;;;;;;;13.75;7.63;;;;;;;6.88;100.00;98777.91;4965462;28;20033;-88
2021/12/24 06:42:52;;;;;;;16.65;8.18;;;;;;;6.89;100.00;98782.25;4965241;28;20054;-87
2021/12/24 06:45:22;;;;;;;16.45;8.32;;;;;;;6.89;100.00;98791.06;4965710;28;20583;-88
2021/12/24 06:47:48;;;;;;;14.77;8.05;;;;;;;6.99;100.00;98790.19;4965619;28;20027;-88
2021/12/24 06:50:14;;;;;;;13.70;7.57;;;;;;;6.97;100.00;98793.00;4965140;28;20034;-88
2021/12/24 06:52:51;;;;;;;15.57;8.07;;;;;;;7.00;100.00;98790.06;4980968;28;20035;-87
2021/12/24 06:55:17;;;;;;;13.52;7.45;;;;;;;6.93;100.00;98792.44;4965122;28;20074;-88
2021/12/24 06:57:44;;;;;;;15.73;7.63;;;;;;;6.95;100.00;98792.31;4965179;28;20035;-87
2021/12/24 07:00:18;;;;;;;14.82;7.75;;;;;;;6.94;100.00;98796.78;4972768;28;20038;-88
2021/12/24 07:02:44;;;;;;;13.80;7.72;;;;;;;6.91;100.00;98805.03;4989888;28;20038;-88
2021/12/24 07:05:10;;;;;;;12.80;7.95;;;;;;;6.95;100.00;98805.59;4969153;28;20031;-87
2021/12/24 07:07:35;;;;;;;16.73;8.07;;;;;;;6.95;100.00;98805.59;4984905;28;20030;-89
2021/12/24 07:10:01;;;;;;;17.25;7.93;;;;;;;6.94;100.00;98806.56;4969068;28;20042;-88
2021/12/24 07:12:27;;;;;;;14.07;8.20;;;;;;;7.00;100.00;98810.47;4968832;28;20567;-86
2021/12/24 07:14:53;;;;;;;9.95;6.75;;;;;;;6.96;100.00;98796.63;4968693;28;20056;-88
2021/12/24 07:17:18;;;;;;;15.80;7.25;;;;;;;6.98;100.00;98796.50;4968782;28;20023;-88
2021/12/24 07:19:44;;;;;;;19.70;7.93;;;;;;;6.99;100.00;98799.00;4967295;28;20466;-89
2021/12/24 07:22:10;;;;;;;13.00;7.65;;;;;;;6.95;100.00;98802.94;4968019;28;20090;-88
2021/12/24 07:24:36;;;;;;;14.85;7.22;;;;;;;6.95;100.00;98792.31;4968462;28;20037;-88
2021/12/24 07:27:02;;;;;;;16.60;7.20;;;;;;;6.91;100.00;98790.91;4985168;28;20043;-87
2021/12/24 07:29:28;;;;;;;15.13;7.20;;;;;;;6.94;100.00;98796.78;4968173;28;20029;-87
2021/12/24 07:31:53;;;;;;;16.23;7.47;;;;;;;6.94;100.00;98809.22;4968280;28;20066;-88
2021/12/24 07:34:19;;;;;;;12.65;7.72;;;;;;;6.91;100.00;98809.53;4968469;28;20022;-88
2021/12/24 07:36:44;;;;;;;17.80;7.75;;;;;;;6.95;100.00;98801.13;4968496;28;20034;-88
2021/12/24 07:39:09;;;;;;;13.55;7.28;;;;;;;6.94;100.00;98798.59;4968867;28;20057;-88
2021/12/24 07:41:36;;;;;;;14.75;7.20;;;;;;;6.92;100.00;98793.44;4984275;28;20045;-87
2021/12/24 07:44:02;;;;;;;13.95;7.32;;;;;;;6.92;100.00;98797.91;4968695;28;20019;-88
2021/12/24 07:46:35;;;;;;;14.70;7.63;;;;;;;6.93;100.00;98800.44;4976342;28;20121;-89
2021/12/24 07:49:12;;;;;;;13.25;6.75;;;;;;;6.94;100.00;98802.09;4969041;28;20122;-89
2021/12/24 07:54:21;;;;;;;14.93;7.07;;;;;;;6.98;100.00;98801.81;4984517;28;20034;-87
2021/12/24 07:56:47;;;;;;;16.73;7.13;;;;;;;6.97;100.00;98803.63;4968003;28;20027;-87
2021/12/24 07:59:14;;;;;;;15.00;6.90;;;;;;;6.94;100.00;98799.44;4968311;28;20031;-87
2021/12/24 08:01:40;;;;;;;16.35;7.47;;;;;;;6.97;100.00;98789.50;4965978;28;20559;-89
2021/12/24 08:04:06;;;;;;;15.43;7.15;;;;;;;6.93;100.00;98802.25;4968035;28;20187;-88
2021/12/24 08:06:32;;;;;;;11.07;6.68;;;;;;;6.90;100.00;98802.53;4984039;28;20082;-88
2021/12/24 08:08:57;;;;;;;17.05;7.82;;;;;;;6.97;100.00;98810.75;4967888;28;20054;-87
2021/12/24 08:11:23;;;;;;;14.23;7.10;;;;;;;6.95;100.00;98818.88;4967387;28;20030;-88
2021/12/24 08:13:48;;;;;;;16.58;6.47;;;;;;;6.93;100.00;98815.53;4967400;28;20084;-88
2021/12/24 08:16:15;;;;;;;11.02;7.10;;;;;;;6.99;100.00;98816.78;4967450;28;20542;-87
2021/12/24 08:18:43;;;;;;;15.43;6.93;;;;;;;7.00;100.00;98813.97;4983936;28;20162;-89
2021/12/24 08:21:09;;;;;;;17.70;8.25;;;;;;;7.00;100.00;98818.44;4967573;28;20054;-88
2021/12/24 08:23:34;;;;;;;19.17;8.02;;;;;;;6.99;100.00;98812.28;4967797;28;20026;-88
2021/12/24 08:25:59;;;;;;;11.98;7.53;;;;;;;6.97;100.00;98814.25;4967681;28;20042;-87
2021/12/24 08:28:26;;;;;;;16.75;7.72;;;;;;;6.98;100.00;98807.13;4983861;28;20038;-88
2021/12/24 08:30:53;;;;;;;16.67;7.50;;;;;;;6.97;100.00;98808.94;4983118;28;20023;-88
2021/12/24 08:33:18;;;;;;;19.38;7.95;;;;;;;6.94;100.00;98799.44;4983314;28;20026;-88
2021/12/24 08:35:44;;;;;;;15.90;7.97;;;;;;;6.97;100.00;98797.47;4967741;28;20027;-88
2021/12/24 08:38:09;;;;;;;15.77;8.15;;;;;;;6.97;100.00;98792.16;4967156;28;20057;-88
2021/12/24 08:40:35;;;;;;;14.70;8.93;;;;;;;7.03;100.00;98778.28;4966293;28;20050;-89
2021/12/24 08:43:01;;;;;;;15.18;8.68;;;;;;;7.04;100.00;98780.81;4966362;28;20030;-90
2021/12/24 08:45:26;;;;;;;15.93;8.20;;;;;;;7.08;100.00;98778.69;4966584;28;20025;-88
2021/12/24 08:47:52;;;;;;;19.33;8.52;;;;;;;7.06;100.00;98773.53;4966711;28;20046;-87
2021/12/24 08:50:17;;;;;;;16.95;8.35;;;;;;;7.05;100.00;98779.81;4964899;28;20106;-88
2021/12/24 08:52:45;;;;;;;13.60;8.57;;;;;;;7.08;100.00;98770.72;4965397;28;20031;-87
2021/12/24 08:55:11;;;;;;;14.10;8.15;;;;;;;7.06;100.00;98780.66;4965974;28;20054;-89
2021/12/24 08:57:38;;;;;;;15.63;8.68;;;;;;;7.06;100.00;98781.50;4973143;28;20023;-89
2021/12/24 09:00:04;;;;;;;16.58;8.18;;;;;;;7.07;100.00;98775.19;4965238;28;20031;-89
2021/12/24 09:02:30;;;;;;;16.98;8.40;;;;;;;7.08;100.00;98776.03;4981319;28;20030;-88
2021/12/24 09:04:55;;;;;;;14.43;8.15;;;;;;;7.09;100.00;98773.22;4965015;28;20023;-89
2021/12/24 09:07:21;;;;;;;15.98;8.15;;;;;;;7.09;100.00;98775.06;4965348;28;20069;-90
2021/12/24 09:09:47;;;;;;;13.90;7.68;;;;;;;7.08;100.00;98765.41;4965353;28;20029;-89
2021/12/24 09:12:12;;;;;;;11.05;7.45;;;;;;;7.09;100.00;98762.59;4964291;28;20034;-89
2021/12/24 09:14:38;;;;;;;16.63;7.55;;;;;;;7.09;100.00;98764.41;4964568;28;20031;-89
2021/12/24 09:17:04;;;;;;;14.55;7.47;;;;;;;7.10;100.00;98761.66;4965488;28;20428;-87
2021/12/24 09:19:31;;;;;;;14.93;7.90;;;;;;;7.11;100.00;98760.66;4964979;28;20026;-89
2021/12/24 09:21:57;;;;;;;16.38;7.60;;;;;;;7.08;100.00;98768.91;4965077;28;20137;-89
2021/12/24 09:24:25;;;;;;;14.63;7.28;;;;;;;7.07;100.00;98761.91;4965370;28;20451;-88
2021/12/24 09:26:56;;;;;;;16.55;7.18;;;;;;;7.12;100.00;98750.88;4981109;28;20046;-87
2021/12/24 09:29:22;;;;;;;11.82;7.20;;;;;;;7.12;100.00;98759.69;4965527;28;20037;-88
2021/12/24 09:31:47;;;;;;;11.93;7.50;;;;;;;7.12;100.00;98766.81;4964784;28;20102;-88
2021/12/24 09:34:13;;;;;;;12.30;7.00;;;;;;;7.15;100.00;98770.03;4965207;28;20044;-86
2021/12/24 09:36:39;;;;;;;13.27;6.55;;;;;;;7.13;100.00;98774.66;4964245;28;20027;-89
2021/12/24 09:39:05;;;;;;;12.70;6.63;;;;;;;7.16;100.00;98771.69;4964354;28;20369;-87
2021/12/24 09:41:32;;;;;;;13.25;6.63;;;;;;;7.16;100.00;98774.34;4964147;28;20114;-88
2021/12/24 09:44:00;;;;;;;17.83;6.72;;;;;;;7.16;100.00;98769.03;4964619;28;20031;-89
2021/12/24 09:46:27;;;;;;;16.75;6.63;;;;;;;7.17;100.00;98773.38;4965157;28;20037;-87
2021/12/24 09:48:53;;;;;;;15.00;6.53;;;;;;;7.19;100.00;98765.25;4965061;28;20027;-88
2021/12/24 10:02:52;;;;;;;16.40;7.10;;;;;;;7.29;100.00;98759.88;4940815;29;20030;-90
2021/12/24 10:28:30;;;;;;;;;;;;;;;7.43;100.00;98727.47;5512643;23;20051;-82
2021/12/24 10:31:00;;;;;;;14.48;6.32;;;;;;;7.46;100.00;98728.03;4923335;29;19986;-84
2021/12/24 10:33:25;;;;;;;13.35;6.85;;;;;;;7.46;100.00;98733.34;4908097;29;20040;-83
2021/12/24 10:36:00;;;;;;;14.07;6.95;;;;;;;7.46;100.00;98733.34;4908024;29;20036;-84
2021/12/24 10:38:26;;;;;;;15.90;6.63;;;;;;;7.52;100.00;98734.56;4903007;29;20036;-84
2021/12/24 10:40:51;;;;;;;14.50;5.88;;;;;;;7.58;100.00;98736.66;4904381;29;20032;-83
2021/12/24 10:43:28;;;;;;;11.60;6.40;;;;;;;7.56;100.00;98735.94;4904323;29;20108;-84
2021/12/24 10:46:09;;;;;;;18.70;6.35;;;;;;;7.52;100.00;98739.88;4904800;29;20050;-83
2021/12/24 10:48:35;;;;;;;12.55;6.90;;;;;;;7.52;100.00;98730.09;4896527;29;20067;-84
2021/12/24 10:51:06;;;;;;;15.15;7.28;;;;;;;7.56;100.00;98728.78;4903893;29;20048;-81
2021/12/24 10:54:04;;;;;;;12.90;5.95;;;;;;;7.51;100.00;98727.56;4889474;29;20036;-84
2021/12/24 11:34:41;;;;;;;13.93;6.07;;;;;;;7.56;100.00;98725.31;5244063;23;20057;-89
2021/12/24 11:37:13;;;;;;;17.30;6.50;;;;;;;7.60;100.00;98716.06;4888352;29;20150;-89
2021/12/24 11:39:48;;;;;;;13.43;6.97;;;;;;;7.65;100.00;98720.94;4871599;29;20075;-90
2021/12/24 11:42:52;;;;;;;11.63;6.25;;;;;;;7.68;100.00;98720.63;4887367;29;20108;-90
2021/12/24 11:45:37;;;;;;;13.98;6.50;;;;;;;7.70;100.00;98711.50;4872830;29;20036;-89
2021/12/24 11:48:20;;;;;;;15.05;6.60;;;;;;;7.69;100.00;98703.69;4871818;29;20040;-89
2021/12/24 11:50:52;;;;;;;17.63;6.93;;;;;;;7.66;100.00;98701.31;4890033;29;20064;-90
2021/12/24 11:53:28;;;;;;;11.82;5.97;;;;;;;7.65;100.00;98694.31;4874181;29;20040;-88
2021/12/24 11:56:07;;;;;;;12.48;6.20;;;;;;;7.67;100.00;98695.84;4876231;29;20040;-88
2021/12/24 11:59:11;;;;;;;12.55;6.18;;;;;;;7.70;100.00;98694.72;4891275;29;20032;-91
2021/12/24 12:02:11;;;;;;;14.65;4.82;;;;;;;7.67;100.00;98695.84;4869203;29;20040;-90
2021/12/24 12:05:24;;;;;;;12.70;5.30;;;;;;;7.65;100.00;98697.00;4882948;29;20087;-90
2021/12/24 12:08:26;;;;;;;11.57;5.35;;;;;;;7.63;100.00;98701.63;4876153;29;20040;-90
2021/12/24 12:11:10;;;;;;;9.35;5.25;;;;;;;7.61;100.00;98693.78;4903525;29;20037;-89
2021/12/24 12:13:49;;;;;;;11.40;5.07;;;;;;;7.67;100.00;98706.50;4890177;29;20032;-89
2021/12/24 12:16:49;;;;;;;13.52;5.18;;;;;;;7.67;100.00;98701.16;4889829;29;20051;-91
2021/12/24 12:19:48;;;;;;;11.38;5.45;;;;;;;7.65;100.00;98697.81;4890515;29;20040;-91
2021/12/24 12:22:54;;;;;;;12.80;5.00;;;;;;;7.65;100.00;98697.00;4890624;29;20067;-90
2021/12/24 12:25:59;;;;;;;;;;;;;;;;;;;;;
2021/12/24 12:29:11;;;;;;;12.63;5.40;;;;;;;7.69;100.00;98701.03;4847647;29;20129;-91
2021/12/24 12:35:34;;;;;;;11.98;5.43;;;;;;;7.68;100.00;98684.22;4830444;29;20198;-91
2021/12/24 12:38:51;;;;;;;15.20;5.45;;;;;;;7.73;100.00;98681.09;4820734;29;20522;-91
2021/12/24 12:41:37;;;;;;;9.43;4.82;;;;;;;7.72;100.00;98671.44;4818907;29;20076;-88
2021/12/24 12:44:07;;;;;;;13.05;5.03;;;;;;;7.75;100.00;98665.81;4818371;29;20094;-88
2021/12/24 12:46:36;;;;;;;13.68;5.60;;;;;;;7.74;100.00;98667.66;4832323;29;20105;-90
2021/12/24 12:49:37;;;;;;;;;;;;;;;;;;;;;
2021/12/24 13:00:19;;;;;;;;;;;;;;;;;;;;;
2021/12/24 13:06:47;;;;;;;15.05;4.85;;;;;;;7.66;100.00;98669.41;4872510;29;20044;-90
2021/12/24 13:13:27;;;;;;;12.98;4.53;;;;;;;7.64;100.00;98671.38;4870307;29;20048;-90
2021/12/24 13:16:34;;;;;;;12.45;4.75;;;;;;;7.67;100.00;98681.72;4880984;29;20045;-90
2021/12/24 13:22:40;;;;;;;9.77;4.32;;;;;;;7.64;100.00;98677.53;4904828;29;20040;-90
2021/12/24 13:25:49;;;;;;;10.85;4.43;;;;;;;7.65;100.00;98671.22;4893316;29;20072;-90
2021/12/24 13:28:57;;;;;;;12.82;4.78;;;;;;;7.64;100.00;98668.72;4850878;29;20762;-90
2021/12/24 13:36:13;;;;;;;12.77;4.95;;;;;;;7.65;100.00;98668.56;4872271;29;20057;-89
2021/12/24 13:39:35;;;;;;;9.55;3.95;;;;;;;7.65;100.00;98662.41;4850834;29;20049;-91
2021/12/24 13:42:49;;;;;;;;;;;;;;;;;;;;;
2021/12/24 13:45:52;;;;;;;12.15;4.32;;;;;;;7.64;100.00;98669.53;4865847;29;20136;-91
2021/12/24 13:49:19;;;;;;;15.30;4.82;;;;;;;7.65;100.00;98663.25;4849913;29;20128;-90
2021/12/24 13:55:58;;;;;;;;;;;;;;;;;;;;;
2021/12/24 13:59:12;;;;;;;10.75;4.53;;;;;;;7.65;100.00;98667.72;4904939;29;20521;-91
2021/12/24 14:01:57;;;;;;;9.18;4.47;;;;;;;7.65;100.00;98659.75;4846618;29;20129;-91
2021/12/24 14:05:19;;;;;;;;;;;;;;;;;;;;;
2021/12/24 14:11:35;;;;;;;10.85;4.57;;;;;;;7.65;100.00;98665.91;4810982;29;20152;-88
2021/12/24 14:14:23;;;;;;;10.32;4.97;;;;;;;7.67;100.00;98649.78;4803126;29;20161;-89
2021/12/24 14:20:47;;;;;;;;;;;;;;;;;;;;;
2021/12/24 14:23:46;;;;;;;10.52;5.15;;;;;;;7.70;100.00;98660.13;4826926;29;20080;-92
2021/12/24 14:26:35;;;;;;;14.30;5.43;;;;;;;7.69;100.00;98658.44;4819286;29;20094;-90
2021/12/24 14:29:36;;;;;;;;;;;;;;;;;;;;;
2021/12/24 14:32:58;;;;;;;9.68;4.45;;;;;;;7.70;100.00;98668.09;4887445;29;20159;-91
2021/12/24 14:47:12;;;;;;;10.63;5.28;;;;;;;7.67;100.00;98677.22;4815657;29;20165;-90
2021/12/24 14:53:45;;;;;;;12.07;5.43;;;;;;;7.68;100.00;98683.38;4888721;29;20063;-90
2021/12/24 14:57:00;;;;;;;9.40;4.78;;;;;;;7.65;100.00;98687.19;4874010;29;20043;-89
2021/12/24 15:00:04;;;;;;;10.23;5.20;;;;;;;7.67;100.00;98684.38;4873521;29;20076;-90
2021/12/24 15:03:10;;;;;;;10.65;4.97;;;;;;;7.66;100.00;98688.03;4872722;29;20036;-90
2021/12/24 15:06:10;;;;;;;10.77;5.15;;;;;;;7.67;100.00;98690.53;4869857;29;20886;-91
2021/12/24 15:11:59;;;;;;;;;;;;;;;;;;;;;
2021/12/24 15:14:54;;;;;;;11.45;5.03;;;;;;;7.66;100.00;98677.38;4888173;29;20124;-91
2021/12/24 15:17:44;;;;;;;11.88;5.90;;;;;;;7.65;100.00;98673.88;4875774;29;20041;-91
2021/12/24 15:20:32;;;;;;;;;;;;;;;;;;;;;
2021/12/24 15:23:23;;;;;;;12.43;5.93;;;;;;;7.65;100.00;98684.53;4888236;29;20100;-89
2021/12/24 15:29:46;;;;;;;9.48;5.22;;;;;;;7.67;100.00;98684.38;4900081;29;20040;-89
2021/12/24 15:32:50;;;;;;;11.25;5.43;;;;;;;7.66;100.00;98680.88;4886378;29;20048;-90
2021/12/24 15:35:34;;;;;;;12.73;5.90;;;;;;;7.67;100.00;98693.19;4874863;29;20089;-90
2021/12/24 15:38:32;;;;;;;12.75;5.85;;;;;;;7.65;100.00;98700.47;4892021;29;20117;-90
2021/12/24 15:41:27;;;;;;;13.23;5.75;;;;;;;7.66;100.00;98696.00;4887850;29;20510;-89
2021/12/24 15:44:19;;;;;;;11.52;6.18;;;;;;;7.64;100.00;98693.50;4891718;29;20036;-89
2021/12/24 15:47:01;;;;;;;12.52;6.18;;;;;;;7.67;100.00;98697.69;4878052;29;20043;-90
2021/12/24 15:50:11;;;;;;;10.15;5.18;;;;;;;7.65;100.00;98683.69;4876797;29;20036;-91
2021/12/24 15:53:18;;;;;;;11.73;7.13;;;;;;;7.65;100.00;98695.16;4879697;29;20081;-89
2021/12/24 15:56:43;;;;;;;;;;;;;;;;;;;;;
2021/12/24 15:59:34;;;;;;;12.93;6.53;;;;;;;7.64;100.00;98690.84;4891328;29;20139;-88
2021/12/24 16:02:39;;;;;;;;;;;;;;;;;;;;;
2021/12/24 16:05:26;;;;;;;11.20;6.07;;;;;;;7.65;100.00;98699.66;4891634;29;20103;-91